createdAt,value
2022-09-25T00:03:03.833Z,96.11
2022-09-25T00:10:43.593Z,95.65
2022-09-25T00:18:37.832Z,95.74
2022-09-25T00:26:14.565Z,94.65
2022-09-25T00:33:48.186Z,95.12
2022-09-25T00:41:25.837Z,95.92
2022-09-25T00:49:03.631Z,95.37
2022-09-25T00:56:43.211Z,96.00
2022-09-25T01:04:18.314Z,96.38
2022-09-25T01:11:53.384Z,95.33
2022-09-25T01:19:43.177Z,92.47
2022-09-25T01:27:39.339Z,91.94
2022-09-25T01:35:20.620Z,91.31
2022-09-25T01:43:00.950Z,91.75
2022-09-25T01:50:42.600Z,90.29
2022-09-25T01:58:20.579Z,89.92
2022-09-25T02:05:59.139Z,92.75
2022-09-25T02:13:39.257Z,90.63
2022-09-25T02:21:22.219Z,89.44
2022-09-25T02:28:56.936Z,90.36
2022-09-25T02:36:32.385Z,90.99
2022-09-25T02:44:16.437Z,93.19
2022-09-25T02:52:01.270Z,93.73
2022-09-25T02:59:38.192Z,95.82
2022-09-25T03:07:13.390Z,96.39
2022-09-25T03:14:47.719Z,97.65
2022-09-25T03:22:22.760Z,100.00
2022-09-25T03:29:56.568Z,100.00
2022-09-25T03:37:32.310Z,100.00
2022-09-25T03:45:07.436Z,100.00
2022-09-25T03:52:42.315Z,100.00
2022-09-25T04:00:16.938Z,100.00
2022-09-25T04:07:52.009Z,100.00
2022-09-25T04:15:25.928Z,100.00
2022-09-25T04:23:01.047Z,100.00
2022-09-25T04:30:34.960Z,100.00
2022-09-25T04:38:13.666Z,100.00
2022-09-25T04:45:48.108Z,100.00
2022-09-25T04:53:23.972Z,100.00
2022-09-25T05:01:02.185Z,100.00
2022-09-25T05:08:37.228Z,100.00
2022-09-25T05:16:10.782Z,100.00
2022-09-25T05:23:45.837Z,100.00
2022-09-25T05:31:19.590Z,100.00
2022-09-25T05:38:54.816Z,100.00
2022-09-25T05:46:28.564Z,100.00
2022-09-25T05:54:03.698Z,100.00
2022-09-25T06:01:37.303Z,100.00
2022-09-25T06:09:12.311Z,100.00
2022-09-25T06:16:48.929Z,100.00
2022-09-25T06:24:24.249Z,100.00
2022-09-25T06:31:57.914Z,100.00
2022-09-25T06:39:33.936Z,100.00
2022-09-25T06:47:07.596Z,100.00
2022-09-25T06:54:44.375Z,100.00
2022-09-25T07:02:35.638Z,100.00
2022-09-25T07:10:10.914Z,100.00
2022-09-25T07:17:44.988Z,100.00
2022-09-25T07:25:20.066Z,100.00
2022-09-25T07:32:59.191Z,100.00
2022-09-25T07:40:35.537Z,100.00
2022-09-25T07:48:10.373Z,100.00
2022-09-25T07:55:45.720Z,100.00
2022-09-25T08:03:19.399Z,100.00
2022-09-25T08:10:55.342Z,100.00
2022-09-25T08:18:29.087Z,100.00
2022-09-25T08:26:04.383Z,100.00
2022-09-25T08:33:38.059Z,100.00
2022-09-25T08:41:19.145Z,100.00
2022-09-25T08:49:06.251Z,100.00
2022-09-25T08:56:41.457Z,96.96
2022-09-25T09:04:20.316Z,96.49
2022-09-25T09:12:01.994Z,95.20
2022-09-25T09:19:35.722Z,95.02
2022-09-25T09:27:26.949Z,94.58
2022-09-25T09:35:14.081Z,95.77
2022-09-25T09:42:59.733Z,94.20
2022-09-25T09:50:47.192Z,91.28
2022-09-25T09:58:30.252Z,91.35
2022-09-25T10:06:09.562Z,88.92
2022-09-25T10:13:45.731Z,87.64
2022-09-25T10:21:21.239Z,88.98
2022-09-25T10:28:57.825Z,90.01
2022-09-25T10:36:39.491Z,88.37
2022-09-25T10:44:24.633Z,87.86
2022-09-25T10:52:05.445Z,85.21
2022-09-25T10:59:41.480Z,85.41
2022-09-25T11:07:27.746Z,85.78
2022-09-25T11:15:05.829Z,86.15
2022-09-25T11:22:42.200Z,84.44
2022-09-25T11:30:19.844Z,81.87
2022-09-25T11:38:09.702Z,81.80
2022-09-25T11:45:49.717Z,79.41
2022-09-25T11:53:34.339Z,78.32
2022-09-25T12:01:22.639Z,76.03
2022-09-25T12:09:10.176Z,71.06
2022-09-25T12:16:53.274Z,65.87
2022-09-25T12:24:40.133Z,67.44
2022-09-25T12:32:27.313Z,67.56
2022-09-25T12:40:04.155Z,68.87
2022-09-25T12:47:45.954Z,69.54
2022-09-25T12:55:26.085Z,70.34
2022-09-25T13:03:12.398Z,69.43
2022-09-25T13:10:51.347Z,70.93
2022-09-25T13:18:29.375Z,70.42
2022-09-25T13:26:11.598Z,68.81
2022-09-25T13:33:50.467Z,69.40
2022-09-25T13:41:24.329Z,68.86
2022-09-25T13:49:35.493Z,68.79
2022-09-25T13:57:10.213Z,69.17
2022-09-25T14:04:48.616Z,69.13
2022-09-25T14:12:30.027Z,72.37
2022-09-25T14:20:11.207Z,73.96
2022-09-25T14:27:52.485Z,74.84
2022-09-25T14:35:36.971Z,73.64
2022-09-25T14:43:41.567Z,73.51
2022-09-25T14:51:25.667Z,73.04
2022-09-25T14:59:02.482Z,74.59
2022-09-25T15:06:39.277Z,74.51
2022-09-25T15:14:20.796Z,75.49
2022-09-25T15:21:55.920Z,76.23
2022-09-25T15:29:31.079Z,76.92
2022-09-25T15:37:18.803Z,77.31
2022-09-25T15:44:54.170Z,76.19
2022-09-25T15:52:34.020Z,76.55
2022-09-25T16:00:28.123Z,77.25
2022-09-25T16:08:29.263Z,78.10
2022-09-25T16:16:03.134Z,78.52
2022-09-25T16:23:40.006Z,78.25
2022-09-25T16:31:13.776Z,79.12
2022-09-25T16:39:14.525Z,80.61
2022-09-25T16:47:06.953Z,80.93
2022-09-25T16:54:42.580Z,81.54
2022-09-25T17:02:25.749Z,83.15
2022-09-25T17:10:01.649Z,84.00
2022-09-25T17:17:35.400Z,84.89
2022-09-25T17:25:22.060Z,85.83
2022-09-25T17:32:55.719Z,87.05
2022-09-25T17:40:33.277Z,87.94
2022-09-25T17:48:07.187Z,89.40
2022-09-25T17:55:42.264Z,90.30
2022-09-25T18:03:16.777Z,92.32
2022-09-25T18:10:54.659Z,92.59
2022-09-25T18:18:49.612Z,92.56
2022-09-25T18:26:29.062Z,92.79
2022-09-25T18:34:04.786Z,92.99
2022-09-25T18:41:42.017Z,93.28
2022-09-25T18:49:15.761Z,94.87
2022-09-25T18:56:51.201Z,96.09
2022-09-25T19:04:25.876Z,98.39
2022-09-25T19:12:01.106Z,99.30
2022-09-25T19:19:36.220Z,100.00
2022-09-25T19:27:12.091Z,100.00
2022-09-25T19:34:45.792Z,100.00
2022-09-25T19:42:21.147Z,100.00
2022-09-25T19:49:54.803Z,100.00
2022-09-25T19:57:29.970Z,100.00
2022-09-25T20:05:05.977Z,100.00
2022-09-25T20:12:41.127Z,100.00
2022-09-25T20:20:16.092Z,100.00
2022-09-25T20:27:52.173Z,100.00
2022-09-25T20:35:25.840Z,100.00
2022-09-25T20:43:00.945Z,100.00
2022-09-25T20:50:37.090Z,100.00
2022-09-25T20:58:11.918Z,100.00
2022-09-25T21:05:46.614Z,100.00
2022-09-25T21:13:21.890Z,100.00
2022-09-25T21:21:00.427Z,100.00
2022-09-25T21:28:35.495Z,100.00
2022-09-25T21:36:10.701Z,100.00
2022-09-25T21:43:46.114Z,100.00
2022-09-25T21:51:21.645Z,100.00
2022-09-25T21:58:57.814Z,100.00
2022-09-25T22:06:34.189Z,100.00
2022-09-25T22:14:15.417Z,100.00
2022-09-25T22:21:51.384Z,100.00
2022-09-25T22:29:26.520Z,100.00
2022-09-25T22:37:00.583Z,100.00
2022-09-25T22:44:35.732Z,100.00
2022-09-25T22:52:09.430Z,100.00
2022-09-25T22:59:44.442Z,100.00
2022-09-25T23:07:17.940Z,100.00
2022-09-25T23:14:53.980Z,100.00
2022-09-25T23:22:27.653Z,100.00
2022-09-25T23:30:02.702Z,100.00
2022-09-25T23:37:36.399Z,100.00
2022-09-25T23:45:12.866Z,100.00
2022-09-25T23:52:46.575Z,100.00
